sensor_id;sensor_type;location;lat;lon;timestamp;temperature;humidity
324;DHT22;149;51.094;17.002;2022-07-04T00:01:02;19.50;99.90
324;DHT22;149;51.094;17.002;2022-07-04T00:03:32;19.60;99.90
324;DHT22;149;51.094;17.002;2022-07-04T00:05:59;19.60;99.90
324;DHT22;149;51.094;17.002;2022-07-04T00:08:27;19.40;99.90
324;DHT22;149;51.094;17.002;2022-07-04T00:10:54;19.60;99.90
324;DHT22;149;51.094;17.002;2022-07-04T00:13:22;19.60;99.90
324;DHT22;149;51.094;17.002;2022-07-04T00:15:49;19.60;99.90
324;DHT22;149;51.094;17.002;2022-07-04T00:18:16;19.60;99.90
324;DHT22;149;51.094;17.002;2022-07-04T00:20:43;19.60;99.90
324;DHT22;149;51.094;17.002;2022-07-04T00:23:10;19.60;99.90
324;DHT22;149;51.094;17.002;2022-07-04T00:25:37;19.50;99.90
324;DHT22;149;51.094;17.002;2022-07-04T00:28:05;19.50;99.90
324;DHT22;149;51.094;17.002;2022-07-04T00:30:33;19.50;99.90
324;DHT22;149;51.094;17.002;2022-07-04T00:33:00;19.50;99.90
324;DHT22;149;51.094;17.002;2022-07-04T00:35:28;19.40;99.90
324;DHT22;149;51.094;17.002;2022-07-04T00:37:55;19.40;99.90
324;DHT22;149;51.094;17.002;2022-07-04T00:40:22;19.50;99.90
324;DHT22;149;51.094;17.002;2022-07-04T00:42:49;19.30;99.90
324;DHT22;149;51.094;17.002;2022-07-04T00:45:17;19.30;99.90
324;DHT22;149;51.094;17.002;2022-07-04T00:47:44;19.30;99.90
324;DHT22;149;51.094;17.002;2022-07-04T00:50:12;19.20;99.90
324;DHT22;149;51.094;17.002;2022-07-04T00:52:39;19.10;99.90
324;DHT22;149;51.094;17.002;2022-07-04T00:55:07;19.20;99.90
324;DHT22;149;51.094;17.002;2022-07-04T00:57:35;19.10;99.90
324;DHT22;149;51.094;17.002;2022-07-04T01:00:03;19.00;99.90
324;DHT22;149;51.094;17.002;2022-07-04T01:02:30;19.00;99.90
324;DHT22;149;51.094;17.002;2022-07-04T01:04:58;19.00;99.90
324;DHT22;149;51.094;17.002;2022-07-04T01:07:25;18.90;99.90
324;DHT22;149;51.094;17.002;2022-07-04T01:09:53;18.90;99.90
324;DHT22;149;51.094;17.002;2022-07-04T01:12:27;19.00;99.90
324;DHT22;149;51.094;17.002;2022-07-04T01:14:58;18.90;99.90
324;DHT22;149;51.094;17.002;2022-07-04T01:17:25;18.80;99.90
324;DHT22;149;51.094;17.002;2022-07-04T01:19:53;18.80;99.90
324;DHT22;149;51.094;17.002;2022-07-04T01:22:20;18.80;99.90
324;DHT22;149;51.094;17.002;2022-07-04T01:24:50;18.80;99.90
324;DHT22;149;51.094;17.002;2022-07-04T01:27:17;18.60;99.90
324;DHT22;149;51.094;17.002;2022-07-04T01:29:47;18.60;99.90
324;DHT22;149;51.094;17.002;2022-07-04T01:32:15;18.60;99.90
324;DHT22;149;51.094;17.002;2022-07-04T01:34:42;18.60;99.90
324;DHT22;149;51.094;17.002;2022-07-04T01:37:10;18.60;99.90
324;DHT22;149;51.094;17.002;2022-07-04T01:39:37;18.60;99.90
324;DHT22;149;51.094;17.002;2022-07-04T01:42:05;18.60;99.90
324;DHT22;149;51.094;17.002;2022-07-04T01:44:32;18.30;99.90
324;DHT22;149;51.094;17.002;2022-07-04T01:47:00;18.30;99.90
324;DHT22;149;51.094;17.002;2022-07-04T01:49:28;18.30;99.90
324;DHT22;149;51.094;17.002;2022-07-04T01:51:55;18.30;99.90
324;DHT22;149;51.094;17.002;2022-07-04T01:54:23;18.20;99.90
324;DHT22;149;51.094;17.002;2022-07-04T01:56:52;18.10;99.90
324;DHT22;149;51.094;17.002;2022-07-04T01:59:19;18.10;99.90
324;DHT22;149;51.094;17.002;2022-07-04T02:01:46;18.10;99.90
324;DHT22;149;51.094;17.002;2022-07-04T02:04:13;18.10;99.90
324;DHT22;149;51.094;17.002;2022-07-04T02:06:40;18.00;99.90
324;DHT22;149;51.094;17.002;2022-07-04T02:09:07;18.00;99.90
324;DHT22;149;51.094;17.002;2022-07-04T02:11:47;17.90;99.90
324;DHT22;149;51.094;17.002;2022-07-04T02:14:33;17.90;99.90
324;DHT22;149;51.094;17.002;2022-07-04T02:17:00;17.90;99.90
324;DHT22;149;51.094;17.002;2022-07-04T02:19:28;17.80;99.90
324;DHT22;149;51.094;17.002;2022-07-04T02:21:55;17.80;99.90
324;DHT22;149;51.094;17.002;2022-07-04T02:24:22;18.00;99.90
324;DHT22;149;51.094;17.002;2022-07-04T02:26:49;18.00;99.90
324;DHT22;149;51.094;17.002;2022-07-04T02:29:17;18.10;99.90
324;DHT22;149;51.094;17.002;2022-07-04T02:31:44;18.10;99.90
324;DHT22;149;51.094;17.002;2022-07-04T02:34:11;18.00;99.90
324;DHT22;149;51.094;17.002;2022-07-04T02:36:39;18.00;99.90
324;DHT22;149;51.094;17.002;2022-07-04T02:39:06;18.00;99.90
324;DHT22;149;51.094;17.002;2022-07-04T02:41:34;18.00;99.90
324;DHT22;149;51.094;17.002;2022-07-04T02:44:02;17.90;99.90
324;DHT22;149;51.094;17.002;2022-07-04T02:46:29;17.90;99.90
324;DHT22;149;51.094;17.002;2022-07-04T02:48:59;18.00;99.90
324;DHT22;149;51.094;17.002;2022-07-04T02:51:26;17.80;99.90
324;DHT22;149;51.094;17.002;2022-07-04T02:53:54;17.70;99.90
324;DHT22;149;51.094;17.002;2022-07-04T02:56:21;17.60;99.90
324;DHT22;149;51.094;17.002;2022-07-04T02:58:48;17.70;99.90
324;DHT22;149;51.094;17.002;2022-07-04T03:01:16;17.70;99.90
324;DHT22;149;51.094;17.002;2022-07-04T03:03:45;17.80;99.90
324;DHT22;149;51.094;17.002;2022-07-04T03:06:13;17.80;99.90
324;DHT22;149;51.094;17.002;2022-07-04T03:08:41;17.70;99.90
324;DHT22;149;51.094;17.002;2022-07-04T03:11:08;17.70;99.90
324;DHT22;149;51.094;17.002;2022-07-04T03:13:38;17.60;99.90
324;DHT22;149;51.094;17.002;2022-07-04T03:16:05;17.80;99.90
324;DHT22;149;51.094;17.002;2022-07-04T03:18:33;17.70;99.90
324;DHT22;149;51.094;17.002;2022-07-04T03:21:00;17.60;99.90
324;DHT22;149;51.094;17.002;2022-07-04T03:23:29;17.70;99.90
324;DHT22;149;51.094;17.002;2022-07-04T03:25:56;17.60;99.90
324;DHT22;149;51.094;17.002;2022-07-04T03:28:23;17.70;99.90
324;DHT22;149;51.094;17.002;2022-07-04T03:30:50;17.90;99.90
324;DHT22;149;51.094;17.002;2022-07-04T03:33:18;18.30;99.90
324;DHT22;149;51.094;17.002;2022-07-04T03:35:45;18.50;99.90
324;DHT22;149;51.094;17.002;2022-07-04T03:38:13;19.10;99.90
324;DHT22;149;51.094;17.002;2022-07-04T03:40:40;19.80;99.90
324;DHT22;149;51.094;17.002;2022-07-04T03:43:10;20.20;99.90
324;DHT22;149;51.094;17.002;2022-07-04T03:45:37;20.60;99.90
324;DHT22;149;51.094;17.002;2022-07-04T03:48:05;21.10;99.90
324;DHT22;149;51.094;17.002;2022-07-04T03:50:32;21.30;99.90
324;DHT22;149;51.094;17.002;2022-07-04T03:52:59;21.40;99.90
324;DHT22;149;51.094;17.002;2022-07-04T03:55:26;21.60;99.90
324;DHT22;149;51.094;17.002;2022-07-04T03:57:54;21.50;99.90
324;DHT22;149;51.094;17.002;2022-07-04T04:00:21;21.20;99.90
324;DHT22;149;51.094;17.002;2022-07-04T04:02:48;21.00;99.90
324;DHT22;149;51.094;17.002;2022-07-04T04:05:15;20.70;99.90
324;DHT22;149;51.094;17.002;2022-07-04T04:07:59;20.60;99.90
324;DHT22;149;51.094;17.002;2022-07-04T04:10:28;20.90;99.90
324;DHT22;149;51.094;17.002;2022-07-04T04:12:56;20.80;99.90
324;DHT22;149;51.094;17.002;2022-07-04T04:15:24;20.80;99.90
324;DHT22;149;51.094;17.002;2022-07-04T04:17:51;20.80;99.90
324;DHT22;149;51.094;17.002;2022-07-04T04:20:18;20.80;99.90
324;DHT22;149;51.094;17.002;2022-07-04T04:22:45;20.80;99.90
324;DHT22;149;51.094;17.002;2022-07-04T04:25:12;20.80;99.90
324;DHT22;149;51.094;17.002;2022-07-04T04:27:39;20.70;99.90
324;DHT22;149;51.094;17.002;2022-07-04T04:30:07;20.70;99.90
324;DHT22;149;51.094;17.002;2022-07-04T04:32:34;20.70;99.90
324;DHT22;149;51.094;17.002;2022-07-04T04:35:01;20.80;99.90
324;DHT22;149;51.094;17.002;2022-07-04T04:37:28;20.80;99.90
324;DHT22;149;51.094;17.002;2022-07-04T04:39:56;20.70;99.90
324;DHT22;149;51.094;17.002;2022-07-04T04:42:23;20.70;99.90
324;DHT22;149;51.094;17.002;2022-07-04T04:44:50;20.80;99.90
324;DHT22;149;51.094;17.002;2022-07-04T04:47:17;20.90;99.90
324;DHT22;149;51.094;17.002;2022-07-04T04:49:45;21.00;99.90
324;DHT22;149;51.094;17.002;2022-07-04T04:52:12;20.90;99.90
324;DHT22;149;51.094;17.002;2022-07-04T04:54:39;20.90;99.90
324;DHT22;149;51.094;17.002;2022-07-04T04:57:07;20.90;99.90
324;DHT22;149;51.094;17.002;2022-07-04T04:59:34;21.00;99.90
324;DHT22;149;51.094;17.002;2022-07-04T05:02:02;21.10;99.90
324;DHT22;149;51.094;17.002;2022-07-04T05:04:30;21.30;99.90
324;DHT22;149;51.094;17.002;2022-07-04T05:06:57;21.50;99.90
324;DHT22;149;51.094;17.002;2022-07-04T05:09:24;21.60;99.90
324;DHT22;149;51.094;17.002;2022-07-04T05:11:52;21.60;99.90
324;DHT22;149;51.094;17.002;2022-07-04T05:14:19;21.70;99.90
324;DHT22;149;51.094;17.002;2022-07-04T05:16:46;21.70;99.90
324;DHT22;149;51.094;17.002;2022-07-04T05:19:13;21.90;99.90
324;DHT22;149;51.094;17.002;2022-07-04T05:21:41;22.10;99.90
324;DHT22;149;51.094;17.002;2022-07-04T05:24:08;22.30;99.90
324;DHT22;149;51.094;17.002;2022-07-04T05:26:38;22.60;99.90
324;DHT22;149;51.094;17.002;2022-07-04T05:29:06;22.80;99.90
324;DHT22;149;51.094;17.002;2022-07-04T05:31:33;23.10;99.90
324;DHT22;149;51.094;17.002;2022-07-04T05:34:00;23.30;99.90
324;DHT22;149;51.094;17.002;2022-07-04T05:36:28;23.50;99.90
324;DHT22;149;51.094;17.002;2022-07-04T05:38:56;23.60;99.90
324;DHT22;149;51.094;17.002;2022-07-04T05:41:25;23.80;99.90
324;DHT22;149;51.094;17.002;2022-07-04T05:43:52;23.90;99.90
324;DHT22;149;51.094;17.002;2022-07-04T05:46:25;24.20;99.90
324;DHT22;149;51.094;17.002;2022-07-04T05:48:52;24.30;99.90
324;DHT22;149;51.094;17.002;2022-07-04T05:51:19;24.40;99.90
324;DHT22;149;51.094;17.002;2022-07-04T05:53:47;24.60;99.90
324;DHT22;149;51.094;17.002;2022-07-04T05:56:14;25.00;99.90
324;DHT22;149;51.094;17.002;2022-07-04T05:58:41;25.40;99.90
324;DHT22;149;51.094;17.002;2022-07-04T06:01:09;25.60;99.90
324;DHT22;149;51.094;17.002;2022-07-04T06:03:36;26.00;99.90
324;DHT22;149;51.094;17.002;2022-07-04T06:06:06;26.30;99.90
324;DHT22;149;51.094;17.002;2022-07-04T06:08:33;26.50;99.90
324;DHT22;149;51.094;17.002;2022-07-04T06:11:02;26.60;99.90
324;DHT22;149;51.094;17.002;2022-07-04T06:13:29;26.80;99.90
324;DHT22;149;51.094;17.002;2022-07-04T06:15:57;27.00;99.90
324;DHT22;149;51.094;17.002;2022-07-04T06:18:24;27.20;99.90
324;DHT22;149;51.094;17.002;2022-07-04T06:20:51;27.20;99.90
324;DHT22;149;51.094;17.002;2022-07-04T06:23:19;27.30;99.90
324;DHT22;149;51.094;17.002;2022-07-04T06:25:46;27.30;99.90
324;DHT22;149;51.094;17.002;2022-07-04T06:28:13;27.60;99.90
324;DHT22;149;51.094;17.002;2022-07-04T06:31:01;27.80;99.90
324;DHT22;149;51.094;17.002;2022-07-04T06:33:28;28.00;99.90
324;DHT22;149;51.094;17.002;2022-07-04T06:35:55;28.30;99.90
324;DHT22;149;51.094;17.002;2022-07-04T06:38:25;28.50;99.90
324;DHT22;149;51.094;17.002;2022-07-04T06:40:57;28.50;99.90
324;DHT22;149;51.094;17.002;2022-07-04T06:43:25;28.90;99.90
324;DHT22;149;51.094;17.002;2022-07-04T06:45:53;28.90;99.90
324;DHT22;149;51.094;17.002;2022-07-04T06:48:21;29.10;99.90
324;DHT22;149;51.094;17.002;2022-07-04T06:50:48;29.10;99.90
324;DHT22;149;51.094;17.002;2022-07-04T06:53:15;29.30;99.90
324;DHT22;149;51.094;17.002;2022-07-04T06:55:42;29.40;99.90
324;DHT22;149;51.094;17.002;2022-07-04T06:58:10;29.50;99.90
324;DHT22;149;51.094;17.002;2022-07-04T07:00:39;29.50;99.90
324;DHT22;149;51.094;17.002;2022-07-04T07:03:09;29.90;99.90
324;DHT22;149;51.094;17.002;2022-07-04T07:05:36;30.50;99.90
324;DHT22;149;51.094;17.002;2022-07-04T07:08:24;31.20;99.90
324;DHT22;149;51.094;17.002;2022-07-04T07:10:51;32.30;99.90
324;DHT22;149;51.094;17.002;2022-07-04T07:13:19;33.10;99.90
324;DHT22;149;51.094;17.002;2022-07-04T07:15:46;33.50;99.90
324;DHT22;149;51.094;17.002;2022-07-04T07:18:14;34.00;99.60
324;DHT22;149;51.094;17.002;2022-07-04T07:20:41;34.50;98.10
324;DHT22;149;51.094;17.002;2022-07-04T07:23:09;35.50;96.20
324;DHT22;149;51.094;17.002;2022-07-04T07:25:36;36.40;93.80
324;DHT22;149;51.094;17.002;2022-07-04T07:28:04;37.30;91.70
324;DHT22;149;51.094;17.002;2022-07-04T07:30:31;38.20;87.40
324;DHT22;149;51.094;17.002;2022-07-04T07:33:17;38.40;83.10
324;DHT22;149;51.094;17.002;2022-07-04T07:35:44;37.90;83.00
324;DHT22;149;51.094;17.002;2022-07-04T07:38:12;37.70;83.10
324;DHT22;149;51.094;17.002;2022-07-04T07:40:39;37.90;81.30
324;DHT22;149;51.094;17.002;2022-07-04T07:43:06;38.60;79.40
324;DHT22;149;51.094;17.002;2022-07-04T07:45:36;38.30;79.40
324;DHT22;149;51.094;17.002;2022-07-04T07:48:04;37.40;79.70
324;DHT22;149;51.094;17.002;2022-07-04T07:50:32;36.80;81.50
324;DHT22;149;51.094;17.002;2022-07-04T07:52:59;37.00;81.60
324;DHT22;149;51.094;17.002;2022-07-04T07:55:29;36.60;82.50
324;DHT22;149;51.094;17.002;2022-07-04T07:57:56;36.10;82.50
324;DHT22;149;51.094;17.002;2022-07-04T08:00:25;36.10;80.50
324;DHT22;149;51.094;17.002;2022-07-04T08:03:12;35.90;80.00
324;DHT22;149;51.094;17.002;2022-07-04T08:05:58;36.40;80.20
324;DHT22;149;51.094;17.002;2022-07-04T08:08:25;36.50;77.90
324;DHT22;149;51.094;17.002;2022-07-04T08:10:53;35.70;79.10
324;DHT22;149;51.094;17.002;2022-07-04T08:13:23;35.60;80.30
324;DHT22;149;51.094;17.002;2022-07-04T08:15:50;35.70;80.10
324;DHT22;149;51.094;17.002;2022-07-04T08:18:17;36.30;79.10
324;DHT22;149;51.094;17.002;2022-07-04T08:20:45;35.70;79.90
324;DHT22;149;51.094;17.002;2022-07-04T08:23:28;35.80;80.00
324;DHT22;149;51.094;17.002;2022-07-04T08:25:55;34.80;80.70
324;DHT22;149;51.094;17.002;2022-07-04T08:28:23;34.10;81.50
324;DHT22;149;51.094;17.002;2022-07-04T08:30:50;33.80;82.10
324;DHT22;149;51.094;17.002;2022-07-04T08:33:17;33.80;82.20
324;DHT22;149;51.094;17.002;2022-07-04T08:35:44;33.80;82.80
324;DHT22;149;51.094;17.002;2022-07-04T08:38:11;33.40;83.40
324;DHT22;149;51.094;17.002;2022-07-04T08:40:40;34.00;83.90
324;DHT22;149;51.094;17.002;2022-07-04T08:43:10;34.90;82.00
324;DHT22;149;51.094;17.002;2022-07-04T08:45:40;35.90;80.00
324;DHT22;149;51.094;17.002;2022-07-04T08:48:28;35.50;79.70
324;DHT22;149;51.094;17.002;2022-07-04T08:51:04;35.40;80.40
324;DHT22;149;51.094;17.002;2022-07-04T08:53:37;35.20;80.10
324;DHT22;149;51.094;17.002;2022-07-04T08:56:05;35.10;80.50
324;DHT22;149;51.094;17.002;2022-07-04T08:58:53;34.30;83.00
324;DHT22;149;51.094;17.002;2022-07-04T09:01:22;33.90;83.50
324;DHT22;149;51.094;17.002;2022-07-04T09:03:50;34.20;83.70
324;DHT22;149;51.094;17.002;2022-07-04T09:06:20;34.10;82.20
324;DHT22;149;51.094;17.002;2022-07-04T09:08:47;34.20;82.40
324;DHT22;149;51.094;17.002;2022-07-04T09:11:14;34.30;82.90
324;DHT22;149;51.094;17.002;2022-07-04T09:13:41;34.10;83.90
324;DHT22;149;51.094;17.002;2022-07-04T09:16:08;33.40;85.70
324;DHT22;149;51.094;17.002;2022-07-04T09:18:36;33.10;86.80
324;DHT22;149;51.094;17.002;2022-07-04T09:21:06;33.10;88.00
324;DHT22;149;51.094;17.002;2022-07-04T09:23:36;33.00;87.30
324;DHT22;149;51.094;17.002;2022-07-04T09:26:19;32.40;89.70
324;DHT22;149;51.094;17.002;2022-07-04T09:28:56;31.60;90.90
324;DHT22;149;51.094;17.002;2022-07-04T09:31:28;31.20;91.90
324;DHT22;149;51.094;17.002;2022-07-04T09:34:00;31.40;91.80
324;DHT22;149;51.094;17.002;2022-07-04T09:36:34;31.20;91.80
324;DHT22;149;51.094;17.002;2022-07-04T09:44:17;32.20;91.70
324;DHT22;149;51.094;17.002;2022-07-04T09:46:44;32.10;91.80
324;DHT22;149;51.094;17.002;2022-07-04T09:49:11;32.20;91.50
324;DHT22;149;51.094;17.002;2022-07-04T09:51:43;32.10;92.00
324;DHT22;149;51.094;17.002;2022-07-04T09:54:24;31.90;92.50
324;DHT22;149;51.094;17.002;2022-07-04T09:56:55;31.60;92.30
324;DHT22;149;51.094;17.002;2022-07-04T09:59:23;30.90;93.30
324;DHT22;149;51.094;17.002;2022-07-04T10:01:51;30.40;94.10
324;DHT22;149;51.094;17.002;2022-07-04T10:04:18;29.80;95.30
324;DHT22;149;51.094;17.002;2022-07-04T10:06:48;29.60;96.20
324;DHT22;149;51.094;17.002;2022-07-04T10:09:16;29.20;97.30
324;DHT22;149;51.094;17.002;2022-07-04T10:11:46;29.10;97.80
324;DHT22;149;51.094;17.002;2022-07-04T10:14:17;29.20;98.30
324;DHT22;149;51.094;17.002;2022-07-04T10:16:45;29.50;98.20
324;DHT22;149;51.094;17.002;2022-07-04T10:19:12;29.40;98.30
324;DHT22;149;51.094;17.002;2022-07-04T10:21:39;29.60;98.60
324;DHT22;149;51.094;17.002;2022-07-04T10:24:07;29.30;98.90
324;DHT22;149;51.094;17.002;2022-07-04T10:26:35;29.40;99.30
324;DHT22;149;51.094;17.002;2022-07-04T10:29:02;29.40;99.30
324;DHT22;149;51.094;17.002;2022-07-04T10:31:30;29.80;99.40
324;DHT22;149;51.094;17.002;2022-07-04T10:33:58;30.20;98.80
324;DHT22;149;51.094;17.002;2022-07-04T10:36:27;30.40;98.40
324;DHT22;149;51.094;17.002;2022-07-04T10:38:58;30.60;98.50
324;DHT22;149;51.094;17.002;2022-07-04T10:41:28;30.80;98.00
324;DHT22;149;51.094;17.002;2022-07-04T10:44:03;30.90;98.10
324;DHT22;149;51.094;17.002;2022-07-04T10:46:48;30.60;98.30
324;DHT22;149;51.094;17.002;2022-07-04T10:49:17;30.40;98.30
324;DHT22;149;51.094;17.002;2022-07-04T10:51:57;30.40;98.60
324;DHT22;149;51.094;17.002;2022-07-04T10:54:33;30.20;99.10
324;DHT22;149;51.094;17.002;2022-07-04T10:57:17;30.40;99.20
324;DHT22;149;51.094;17.002;2022-07-04T11:02:26;31.10;98.30
324;DHT22;149;51.094;17.002;2022-07-04T11:18:01;30.80;99.30
324;DHT22;149;51.094;17.002;2022-07-04T11:20:30;31.10;98.50
324;DHT22;149;51.094;17.002;2022-07-04T11:23:12;31.40;98.40
324;DHT22;149;51.094;17.002;2022-07-04T11:25:44;31.40;98.30
324;DHT22;149;51.094;17.002;2022-07-04T11:28:28;31.50;98.20
324;DHT22;149;51.094;17.002;2022-07-04T11:31:13;31.20;98.50
324;DHT22;149;51.094;17.002;2022-07-04T11:33:41;31.40;98.70
324;DHT22;149;51.094;17.002;2022-07-04T11:36:19;31.50;97.80
324;DHT22;149;51.094;17.002;2022-07-04T11:39:01;31.50;98.20
324;DHT22;149;51.094;17.002;2022-07-04T11:41:37;31.70;97.80
324;DHT22;149;51.094;17.002;2022-07-04T11:44:28;31.80;97.30
324;DHT22;149;51.094;17.002;2022-07-04T11:47:15;31.80;96.60
324;DHT22;149;51.094;17.002;2022-07-04T11:49:52;31.80;97.00
324;DHT22;149;51.094;17.002;2022-07-04T11:52:22;31.50;96.10
324;DHT22;149;51.094;17.002;2022-07-04T11:55:12;31.60;95.10
324;DHT22;149;51.094;17.002;2022-07-04T11:57:41;31.80;95.80
324;DHT22;149;51.094;17.002;2022-07-04T12:00:10;32.00;95.80
324;DHT22;149;51.094;17.002;2022-07-04T12:02:43;32.30;95.30
324;DHT22;149;51.094;17.002;2022-07-04T12:05:12;32.50;95.00
324;DHT22;149;51.094;17.002;2022-07-04T12:07:45;32.80;94.20
324;DHT22;149;51.094;17.002;2022-07-04T12:10:32;32.90;93.40
324;DHT22;149;51.094;17.002;2022-07-04T12:13:02;32.90;92.70
324;DHT22;149;51.094;17.002;2022-07-04T12:15:41;32.70;93.20
324;DHT22;149;51.094;17.002;2022-07-04T12:18:35;32.80;93.20
324;DHT22;149;51.094;17.002;2022-07-04T12:21:16;32.90;92.40
324;DHT22;149;51.094;17.002;2022-07-04T12:23:51;33.20;91.90
324;DHT22;149;51.094;17.002;2022-07-04T12:26:45;33.10;91.90
324;DHT22;149;51.094;17.002;2022-07-04T12:29:23;33.40;91.60
324;DHT22;149;51.094;17.002;2022-07-04T12:31:57;33.40;91.10
324;DHT22;149;51.094;17.002;2022-07-04T12:34:24;33.60;91.30
324;DHT22;149;51.094;17.002;2022-07-04T12:36:56;33.60;91.10
324;DHT22;149;51.094;17.002;2022-07-04T12:39:43;33.70;87.40
324;DHT22;149;51.094;17.002;2022-07-04T12:42:18;33.60;86.50
324;DHT22;149;51.094;17.002;2022-07-04T12:44:47;33.60;87.20
324;DHT22;149;51.094;17.002;2022-07-04T12:47:19;33.50;87.60
324;DHT22;149;51.094;17.002;2022-07-04T12:50:06;33.20;89.70
324;DHT22;149;51.094;17.002;2022-07-04T12:52:34;32.90;90.40
324;DHT22;149;51.094;17.002;2022-07-04T12:55:06;33.10;91.10
324;DHT22;149;51.094;17.002;2022-07-04T12:57:36;33.30;91.40
324;DHT22;149;51.094;17.002;2022-07-04T13:00:04;33.10;90.80
324;DHT22;149;51.094;17.002;2022-07-04T13:02:51;33.00;91.20
324;DHT22;149;51.094;17.002;2022-07-04T13:05:18;32.40;89.70
324;DHT22;149;51.094;17.002;2022-07-04T13:07:46;32.20;87.90
324;DHT22;149;51.094;17.002;2022-07-04T13:10:13;32.30;86.60
324;DHT22;149;51.094;17.002;2022-07-04T13:12:41;32.70;86.60
324;DHT22;149;51.094;17.002;2022-07-04T13:15:08;32.50;84.80
324;DHT22;149;51.094;17.002;2022-07-04T13:17:38;32.30;85.70
324;DHT22;149;51.094;17.002;2022-07-04T13:20:05;32.30;86.10
324;DHT22;149;51.094;17.002;2022-07-04T13:22:33;32.30;85.10
324;DHT22;149;51.094;17.002;2022-07-04T13:25:00;32.80;87.40
324;DHT22;149;51.094;17.002;2022-07-04T13:27:30;33.40;87.70
324;DHT22;149;51.094;17.002;2022-07-04T13:29:57;33.90;87.80
324;DHT22;149;51.094;17.002;2022-07-04T13:32:25;34.10;87.60
324;DHT22;149;51.094;17.002;2022-07-04T13:34:52;34.10;86.00
324;DHT22;149;51.094;17.002;2022-07-04T13:37:20;33.90;85.10
324;DHT22;149;51.094;17.002;2022-07-04T13:39:47;33.40;85.30
324;DHT22;149;51.094;17.002;2022-07-04T13:42:18;33.20;85.40
324;DHT22;149;51.094;17.002;2022-07-04T13:45:06;33.00;85.80
324;DHT22;149;51.094;17.002;2022-07-04T13:47:34;33.00;87.30
324;DHT22;149;51.094;17.002;2022-07-04T13:50:03;33.00;88.20
324;DHT22;149;51.094;17.002;2022-07-04T13:52:30;32.70;89.60
324;DHT22;149;51.094;17.002;2022-07-04T13:54:58;32.90;89.20
324;DHT22;149;51.094;17.002;2022-07-04T13:57:25;33.10;88.60
324;DHT22;149;51.094;17.002;2022-07-04T13:59:52;33.20;88.10
324;DHT22;149;51.094;17.002;2022-07-04T14:02:20;33.30;89.40
324;DHT22;149;51.094;17.002;2022-07-04T14:04:47;33.40;88.70
324;DHT22;149;51.094;17.002;2022-07-04T14:07:15;33.40;88.10
324;DHT22;149;51.094;17.002;2022-07-04T14:09:46;33.40;87.00
324;DHT22;149;51.094;17.002;2022-07-04T14:12:14;33.40;86.70
324;DHT22;149;51.094;17.002;2022-07-04T14:14:42;33.50;86.00
324;DHT22;149;51.094;17.002;2022-07-04T14:17:11;33.30;86.40
324;DHT22;149;51.094;17.002;2022-07-04T14:19:58;33.40;86.30
324;DHT22;149;51.094;17.002;2022-07-04T14:22:25;33.20;86.80
324;DHT22;149;51.094;17.002;2022-07-04T14:24:52;33.20;85.80
324;DHT22;149;51.094;17.002;2022-07-04T14:27:20;33.40;86.30
324;DHT22;149;51.094;17.002;2022-07-04T14:29:47;33.50;85.90
324;DHT22;149;51.094;17.002;2022-07-04T14:32:15;33.50;83.70
324;DHT22;149;51.094;17.002;2022-07-04T14:34:42;33.30;83.20
324;DHT22;149;51.094;17.002;2022-07-04T14:37:09;32.80;84.40
324;DHT22;149;51.094;17.002;2022-07-04T14:39:36;32.50;85.30
324;DHT22;149;51.094;17.002;2022-07-04T14:42:04;32.50;86.00
324;DHT22;149;51.094;17.002;2022-07-04T14:44:32;32.60;85.70
324;DHT22;149;51.094;17.002;2022-07-04T14:47:05;32.70;86.50
324;DHT22;149;51.094;17.002;2022-07-04T14:49:38;32.70;85.80
324;DHT22;149;51.094;17.002;2022-07-04T14:52:06;32.60;87.00
324;DHT22;149;51.094;17.002;2022-07-04T14:54:33;32.70;85.80
324;DHT22;149;51.094;17.002;2022-07-04T14:57:00;31.90;86.70
324;DHT22;149;51.094;17.002;2022-07-04T14:59:28;31.90;87.70
324;DHT22;149;51.094;17.002;2022-07-04T15:01:55;31.80;87.40
324;DHT22;149;51.094;17.002;2022-07-04T15:04:22;31.60;87.40
324;DHT22;149;51.094;17.002;2022-07-04T15:06:49;31.70;88.60
324;DHT22;149;51.094;17.002;2022-07-04T15:09:16;31.80;88.30
324;DHT22;149;51.094;17.002;2022-07-04T15:11:44;31.80;88.20
324;DHT22;149;51.094;17.002;2022-07-04T15:14:14;31.60;88.60
324;DHT22;149;51.094;17.002;2022-07-04T15:16:41;31.70;89.40
324;DHT22;149;51.094;17.002;2022-07-04T15:19:09;31.60;89.30
324;DHT22;149;51.094;17.002;2022-07-04T15:21:37;31.60;89.00
324;DHT22;149;51.094;17.002;2022-07-04T15:24:23;31.50;88.40
324;DHT22;149;51.094;17.002;2022-07-04T15:26:50;31.10;87.20
324;DHT22;149;51.094;17.002;2022-07-04T15:29:20;30.90;88.00
324;DHT22;149;51.094;17.002;2022-07-04T15:31:48;30.90;88.00
324;DHT22;149;51.094;17.002;2022-07-04T15:34:17;31.00;89.40
324;DHT22;149;51.094;17.002;2022-07-04T15:36:45;31.00;90.20
324;DHT22;149;51.094;17.002;2022-07-04T15:39:14;31.20;89.90
324;DHT22;149;51.094;17.002;2022-07-04T15:41:42;31.30;89.40
324;DHT22;149;51.094;17.002;2022-07-04T15:44:11;31.50;88.60
324;DHT22;149;51.094;17.002;2022-07-04T15:46:38;31.70;89.40
324;DHT22;149;51.094;17.002;2022-07-04T15:49:26;31.70;90.10
324;DHT22;149;51.094;17.002;2022-07-04T15:51:53;31.50;89.90
324;DHT22;149;51.094;17.002;2022-07-04T15:54:21;31.30;90.30
324;DHT22;149;51.094;17.002;2022-07-04T15:56:48;31.10;86.30
324;DHT22;149;51.094;17.002;2022-07-04T15:59:15;30.90;85.40
324;DHT22;149;51.094;17.002;2022-07-04T16:01:42;30.80;85.40
324;DHT22;149;51.094;17.002;2022-07-04T16:04:10;30.80;85.50
324;DHT22;149;51.094;17.002;2022-07-04T16:06:37;30.80;83.60
324;DHT22;149;51.094;17.002;2022-07-04T16:09:07;30.80;84.40
324;DHT22;149;51.094;17.002;2022-07-04T16:11:34;30.90;85.30
324;DHT22;149;51.094;17.002;2022-07-04T16:14:01;31.00;85.70
324;DHT22;149;51.094;17.002;2022-07-04T16:16:29;30.90;86.40
324;DHT22;149;51.094;17.002;2022-07-04T16:18:57;30.70;86.90
324;DHT22;149;51.094;17.002;2022-07-04T16:21:25;30.50;85.80
324;DHT22;149;51.094;17.002;2022-07-04T16:23:53;30.40;85.00
324;DHT22;149;51.094;17.002;2022-07-04T16:26:38;30.40;86.80
324;DHT22;149;51.094;17.002;2022-07-04T16:29:05;30.30;88.50
324;DHT22;149;51.094;17.002;2022-07-04T16:31:33;30.50;88.20
324;DHT22;149;51.094;17.002;2022-07-04T16:34:04;30.30;87.20
324;DHT22;149;51.094;17.002;2022-07-04T16:36:31;30.00;86.20
324;DHT22;149;51.094;17.002;2022-07-04T16:38:58;29.60;87.00
324;DHT22;149;51.094;17.002;2022-07-04T16:41:26;29.20;87.10
324;DHT22;149;51.094;17.002;2022-07-04T16:43:53;29.10;87.70
324;DHT22;149;51.094;17.002;2022-07-04T16:46:20;29.00;88.20
324;DHT22;149;51.094;17.002;2022-07-04T16:48:47;28.90;88.50
324;DHT22;149;51.094;17.002;2022-07-04T16:51:17;28.90;88.30
324;DHT22;149;51.094;17.002;2022-07-04T16:53:44;28.80;88.30